CheckWX is a tool to help pilots better visualize weather data.  It is not intended as a substitute for an official pre-flight weather briefing.

22:17:04 UTC

KRWF TAF
Redwood Falls Municipal Airport
Redwood Falls, Minnesota, USA
KRWF 152111Z 1521/1618 21011KT P6SM VCSH BKN050 TEMPO 1521/1524 3SM TSRA BKN035CB FM160100 24007KT P6SM VCTS BKN050CB FM160600 21002KT 3SM BR SCT015 FM161200 30004KT P6SM OVC100

Jul-15@
21:00 UTC

Jul-15 @ 21:00 UTC

Jul-16@
01:00 UTC

Jul-16 @ 01:00 UTC

KRWF 152111Z 1521/1618 21011KT P6SM VCSH BKN050
Wind
  • 210° at 11 KTS
Cloud Levels
  • Broken at 5,000' AGL

Jul-15@
21:00 UTC

Jul-15 @ 21:00 UTC

Jul-16@
00:00 UTC

Jul-16 @ 00:00 UTC

TEMPO 1521/1524 3SM TSRA BKN035CB

Temporary

Temporary Changes expected for less than half the time period

Conditions
Thunderstorm, Rain
Cloud Levels
  • Broken at 3,500' AGL

Jul-16@
01:00 UTC

Jul-16 @ 01:00 UTC

Jul-16@
06:00 UTC

Jul-16 @ 06:00 UTC

FM160100 24007KT P6SM VCTS BKN050CB

From

From Standard forecast or significant change

Wind
  • 240° at 7 KTS
Conditions
Area Thunderstorm
Cloud Levels
  • Broken at 5,000' AGL

Jul-16@
06:00 UTC

Jul-16 @ 06:00 UTC

Jul-16@
12:00 UTC

Jul-16 @ 12:00 UTC

FM160600 21002KT 3SM BR SCT015

From

From Standard forecast or significant change

Wind
  • 210° at 2 KTS
Conditions
Mist
Cloud Levels
  • Scattered at 1,500' AGL

Jul-16@
12:00 UTC

Jul-16 @ 12:00 UTC

Jul-16@
18:00 UTC

Jul-16 @ 18:00 UTC

FM161200 30004KT P6SM OVC100

From

From Standard forecast or significant change

Wind
  • 300° at 4 KTS
Cloud Levels
  • Overcast at 10,000' AGL